Terminal Aerodrome Forecast
Issued by NWS Bismarck, ND

Home | Current Version | Previous Version | Text Only | Print | Product List | Glossary Off
Versions: 1 2 3 4 5 6 7 8 9 10 11 12 13 14 15 16

000
FTUS43 KBIS 232327
TAFBIS
TAF
KBIS 232327Z 2400/2424 02016KT P6SM BKN070
     FM240200 01016G24KT P6SM VCSH BKN050
     FM240400 01016G25KT 6SM -RA BKN045
     FM241000 01010KT P6SM BKN070
     FM241600 02010G21KT P6SM FEW080=

USA.gov is the U.S. government's official web portal to all federal, state and local government web resources and services.